createdAt,value
2022-10-25T00:04:40.980Z,8.90
2022-10-25T00:09:46.294Z,8.80
2022-10-25T00:14:49.623Z,8.50
2022-10-25T00:19:52.917Z,8.40
2022-10-25T00:24:57.586Z,8.40
2022-10-25T00:30:00.990Z,8.40
2022-10-25T00:35:05.132Z,8.30
2022-10-25T00:40:10.974Z,8.30
2022-10-25T00:45:23.026Z,8.50
2022-10-25T00:50:46.593Z,8.60
2022-10-25T00:55:57.648Z,8.80
2022-10-25T01:01:01.651Z,8.90
2022-10-25T01:06:08.916Z,8.90
2022-10-25T01:11:13.922Z,8.80
2022-10-25T01:16:25.671Z,8.70
2022-10-25T01:21:44.409Z,8.60
2022-10-25T01:27:12.311Z,8.50
2022-10-25T01:32:25.138Z,8.40
2022-10-25T01:37:37.757Z,8.40
2022-10-25T01:42:48.530Z,8.40
2022-10-25T01:48:00.687Z,8.30
2022-10-25T01:53:04.079Z,8.10
2022-10-25T01:58:19.112Z,8.00
2022-10-25T02:03:33.060Z,7.90
2022-10-25T02:08:43.027Z,7.80
2022-10-25T02:13:58.880Z,7.70
2022-10-25T02:19:07.717Z,7.60
2022-10-25T02:24:15.104Z,7.50
2022-10-25T02:29:21.049Z,7.50
2022-10-25T02:34:26.014Z,7.50
2022-10-25T02:39:31.722Z,7.50
2022-10-25T02:44:35.318Z,7.50
2022-10-25T02:49:42.256Z,7.60
2022-10-25T02:54:46.524Z,7.60
2022-10-25T02:59:50.418Z,7.50
2022-10-25T03:04:58.907Z,7.50
2022-10-25T03:10:02.238Z,7.50
2022-10-25T03:15:06.292Z,7.50
2022-10-25T03:20:12.071Z,7.50
2022-10-25T03:25:15.363Z,7.40
2022-10-25T03:30:19.114Z,7.20
2022-10-25T03:35:23.850Z,7.10
2022-10-25T03:40:27.096Z,7.00
2022-10-25T03:45:30.414Z,7.10
2022-10-25T03:50:36.433Z,7.10
2022-10-25T03:55:40.130Z,7.10
2022-10-25T04:00:45.713Z,7.10
2022-10-25T04:05:50.490Z,7.10
2022-10-25T04:10:54.817Z,7.10
2022-10-25T04:15:58.161Z,7.00
2022-10-25T04:21:02.942Z,6.90
2022-10-25T04:26:07.970Z,6.80
2022-10-25T04:31:11.411Z,6.80
2022-10-25T04:36:16.121Z,6.80
2022-10-25T04:41:20.338Z,6.70
2022-10-25T04:46:23.941Z,6.80
2022-10-25T04:51:28.744Z,6.80
2022-10-25T04:56:32.094Z,6.80
2022-10-25T05:01:36.529Z,6.70
2022-10-25T05:06:42.423Z,6.60
2022-10-25T05:11:45.757Z,6.60
2022-10-25T05:16:50.168Z,6.60
2022-10-25T05:21:54.947Z,6.60
2022-10-25T05:26:58.323Z,6.50
2022-10-25T05:32:01.947Z,6.50
2022-10-25T05:37:08.644Z,6.50
2022-10-25T05:42:11.997Z,6.40
2022-10-25T05:47:15.409Z,6.40
2022-10-25T05:52:20.059Z,6.40
2022-10-25T05:57:23.526Z,6.30
2022-10-25T06:02:26.987Z,6.30
2022-10-25T06:07:32.253Z,6.30
2022-10-25T06:12:35.819Z,6.40
2022-10-25T06:17:39.619Z,6.40
2022-10-25T06:22:44.924Z,6.50
2022-10-25T06:27:48.403Z,6.60
2022-10-25T06:32:51.643Z,6.80
2022-10-25T06:38:02.142Z,6.90
2022-10-25T06:43:05.305Z,7.20
2022-10-25T06:48:08.491Z,7.30
2022-10-25T06:53:13.618Z,7.40
2022-10-25T06:58:16.858Z,7.50
2022-10-25T07:03:21.238Z,7.60
2022-10-25T07:08:26.037Z,7.70
2022-10-25T07:13:31.539Z,7.90
2022-10-25T07:18:35.785Z,8.20
2022-10-25T07:23:43.078Z,8.40
2022-10-25T07:28:49.064Z,8.70
2022-10-25T07:33:53.666Z,8.90
2022-10-25T07:38:58.637Z,9.10
2022-10-25T07:44:02.529Z,9.30
2022-10-25T07:49:08.894Z,9.50
2022-10-25T07:54:13.537Z,9.70
2022-10-25T07:59:16.788Z,9.80
2022-10-25T08:04:21.094Z,10.00
2022-10-25T08:09:37.711Z,11.10
2022-10-25T08:14:44.119Z,11.70
2022-10-25T08:19:51.361Z,12.50
2022-10-25T08:24:58.517Z,12.90
2022-10-25T08:30:03.907Z,13.20
2022-10-25T08:35:07.426Z,14.00
2022-10-25T08:40:19.809Z,14.70
2022-10-25T08:45:27.633Z,16.30
2022-10-25T08:50:38.710Z,17.90
2022-10-25T09:01:16.028Z,19.90
2022-10-25T09:06:29.486Z,21.10
2022-10-25T09:11:50.153Z,20.90
2022-10-25T09:16:55.524Z,20.60
2022-10-25T09:22:02.330Z,20.90
2022-10-25T09:27:13.282Z,21.50
2022-10-25T09:32:22.973Z,22.00
2022-10-25T09:37:29.444Z,20.90
2022-10-25T09:42:39.534Z,19.90
2022-10-25T09:47:49.761Z,18.90
2022-10-25T09:53:02.633Z,18.00
2022-10-25T09:58:15.352Z,17.20
2022-10-25T10:03:19.684Z,16.60
2022-10-25T10:08:26.717Z,16.20
2022-10-25T10:13:44.179Z,15.90
2022-10-25T10:18:47.586Z,15.90
2022-10-25T10:23:54.153Z,16.00
2022-10-25T10:29:08.892Z,16.00
2022-10-25T10:34:33.057Z,16.10
2022-10-25T10:39:36.284Z,16.30
2022-10-25T10:44:41.170Z,16.60
2022-10-25T10:49:44.629Z,16.50
2022-10-25T10:54:50.760Z,16.80
2022-10-25T10:59:58.105Z,17.10
2022-10-25T11:05:01.430Z,17.30
2022-10-25T11:10:23.769Z,17.50
2022-10-25T11:15:30.072Z,17.70
2022-10-25T11:20:42.328Z,17.40
2022-10-25T11:25:49.838Z,17.50
2022-10-25T11:31:03.138Z,17.70
2022-10-25T11:36:36.797Z,17.80
2022-10-25T11:41:46.647Z,17.90
2022-10-25T11:46:58.608Z,17.90
2022-10-25T11:52:22.975Z,18.00
2022-10-25T11:57:39.069Z,17.90
2022-10-25T12:03:06.991Z,18.00
2022-10-25T12:08:29.199Z,17.70
2022-10-25T12:13:35.158Z,17.80
2022-10-25T12:18:43.388Z,18.10
2022-10-25T12:23:50.041Z,18.30
2022-10-25T12:28:53.973Z,18.30
2022-10-25T12:34:03.406Z,18.20
2022-10-25T12:39:15.018Z,18.20
2022-10-25T12:44:34.109Z,18.30
2022-10-25T12:50:10.387Z,18.40
2022-10-25T12:55:38.828Z,18.40
2022-10-25T13:01:04.815Z,18.50
2022-10-25T13:06:32.712Z,18.30
2022-10-25T13:11:38.765Z,18.20
2022-10-25T13:16:47.806Z,18.20
2022-10-25T13:22:39.391Z,18.10
2022-10-25T13:28:20.612Z,18.00
2022-10-25T13:33:33.744Z,18.10
2022-10-25T13:38:40.163Z,18.10
2022-10-25T13:44:05.421Z,18.00
2022-10-25T13:49:36.280Z,18.00
2022-10-25T13:54:48.482Z,18.20
2022-10-25T14:00:03.116Z,18.20
2022-10-25T14:05:11.291Z,18.20
2022-10-25T14:10:24.201Z,18.20
2022-10-25T14:15:42.422Z,18.10
2022-10-25T14:20:48.255Z,18.00
2022-10-25T14:25:56.193Z,18.00
2022-10-25T14:31:01.291Z,17.90
2022-10-25T14:36:21.183Z,17.70
2022-10-25T14:41:29.153Z,17.50
2022-10-25T14:46:34.099Z,17.20
2022-10-25T14:51:40.941Z,17.20
2022-10-25T14:56:51.105Z,17.40
2022-10-25T15:01:58.400Z,17.40
2022-10-25T15:07:02.794Z,17.40
2022-10-25T15:12:16.526Z,17.10
2022-10-25T15:17:28.884Z,16.90
2022-10-25T15:22:34.101Z,16.80
2022-10-25T15:27:43.951Z,16.50
2022-10-25T15:32:47.657Z,16.20
2022-10-25T15:37:51.289Z,15.80
2022-10-25T15:42:58.384Z,15.40
2022-10-25T15:48:01.824Z,15.00
2022-10-25T15:53:09.479Z,14.60
2022-10-25T15:58:15.213Z,14.20
2022-10-25T16:03:22.332Z,13.80
2022-10-25T16:08:25.907Z,13.50
2022-10-25T16:13:33.985Z,13.00
2022-10-25T16:18:37.207Z,12.80
2022-10-25T16:23:40.470Z,12.40
2022-10-25T16:28:45.117Z,12.20
2022-10-25T16:33:49.510Z,11.90
2022-10-25T16:38:54.883Z,11.70
2022-10-25T16:44:00.102Z,11.60
2022-10-25T16:49:05.351Z,11.40
2022-10-25T16:54:09.013Z,11.30
2022-10-25T16:59:13.803Z,11.20
2022-10-25T17:04:18.499Z,11.10
2022-10-25T17:09:21.783Z,10.90
2022-10-25T17:14:26.668Z,10.90
2022-10-25T17:19:29.957Z,10.90
2022-10-25T17:24:36.092Z,11.10
2022-10-25T17:29:40.882Z,11.30
2022-10-25T17:34:44.182Z,11.30
2022-10-25T17:39:47.594Z,11.10
2022-10-25T17:44:52.271Z,11.00
2022-10-25T17:50:00.777Z,10.90
2022-10-25T17:55:04.656Z,10.90
2022-10-25T18:00:11.230Z,10.90
2022-10-25T18:05:20.156Z,10.80
2022-10-25T18:10:25.396Z,10.70
2022-10-25T18:15:30.393Z,10.80
2022-10-25T18:20:33.710Z,10.80
2022-10-25T18:25:37.679Z,10.90
2022-10-25T18:30:45.807Z,10.90
2022-10-25T18:35:49.289Z,11.00
2022-10-25T18:40:52.805Z,10.90
2022-10-25T18:46:00.906Z,10.70
2022-10-25T18:51:05.471Z,10.50
2022-10-25T18:56:10.964Z,10.30
2022-10-25T19:01:17.705Z,10.10
2022-10-25T19:06:22.203Z,10.00
2022-10-25T19:11:25.702Z,9.90
2022-10-25T19:16:30.309Z,9.80
2022-10-25T19:21:34.671Z,9.80
2022-10-25T19:26:37.968Z,9.80
2022-10-25T19:31:43.715Z,9.80
2022-10-25T19:36:47.075Z,9.80
2022-10-25T19:41:53.891Z,9.80
2022-10-25T19:46:59.591Z,9.70
2022-10-25T19:52:02.904Z,9.60
2022-10-25T19:57:06.585Z,9.60
2022-10-25T20:02:11.588Z,9.60
2022-10-25T20:07:17.088Z,9.50
2022-10-25T20:12:20.486Z,9.50
2022-10-25T20:17:25.267Z,9.50
2022-10-25T20:22:28.549Z,9.40
2022-10-25T20:27:33.280Z,9.50
2022-10-25T20:32:40.001Z,9.50
2022-10-25T20:37:43.261Z,9.40
2022-10-25T20:42:46.527Z,9.30
2022-10-25T20:47:51.434Z,9.30
2022-10-25T20:53:10.898Z,9.30
2022-10-25T20:58:14.451Z,9.40
2022-10-25T21:03:23.815Z,9.30
2022-10-25T21:08:27.405Z,9.30
2022-10-25T21:13:32.846Z,9.40
2022-10-25T21:18:37.934Z,9.40
2022-10-25T21:23:41.166Z,9.50
2022-10-25T21:28:44.546Z,9.60
2022-10-25T21:33:50.527Z,9.70
2022-10-25T21:38:54.659Z,9.80
2022-10-25T21:43:59.182Z,9.90
2022-10-25T21:49:03.963Z,10.00
2022-10-25T21:54:07.422Z,10.10
2022-10-25T21:59:10.781Z,10.10
2022-10-25T22:04:17.107Z,10.10
2022-10-25T22:09:20.409Z,10.10
2022-10-25T22:14:23.679Z,10.10
2022-10-25T22:19:29.640Z,10.10
2022-10-25T22:24:32.825Z,10.20
2022-10-25T22:29:36.036Z,10.20
2022-10-25T22:34:40.644Z,10.20
2022-10-25T22:39:43.991Z,10.10
2022-10-25T22:44:47.359Z,10.20
2022-10-25T22:49:51.967Z,10.20
2022-10-25T22:54:55.148Z,10.10
2022-10-25T22:59:58.476Z,10.10
2022-10-25T23:05:03.172Z,10.20
2022-10-25T23:10:07.412Z,10.20
2022-10-25T23:15:11.487Z,10.20
2022-10-25T23:20:16.438Z,10.10
2022-10-25T23:25:19.727Z,10.10
2022-10-25T23:30:23.167Z,10.10
2022-10-25T23:35:28.079Z,10.10
2022-10-25T23:40:32.941Z,10.10
2022-10-25T23:45:36.462Z,10.10
2022-10-25T23:50:41.121Z,10.10
2022-10-25T23:55:44.289Z,10.10
